Time;durP1;ratioP1;P1;durP2;ratioP2;P2;SDS_P1;SDS_P2;PMS_P1;PMS_P2;Temp;Humidity;BMP_temperature;BMP_pressure;BME280_temperature;BME280_humidity;BME280_pressure;Samples;Min_cycle;Max_cycle;Signal;HPM_P1;HPM_P2
2022/02/15 00:02:58;;;;;;;16.43;7.93;;;;;;;;;;10289672;28;20043;-58
2022/02/15 00:08:00;;;;;;;15.63;8.27;;;;;;;;;;10283046;28;20038;-58
2022/02/15 00:13:03;;;;;;;15.90;8.10;;;;;;;;;;10282106;28;20042;-58
2022/02/15 00:18:03;;;;;;;15.27;7.55;;;;;;;;;;10267722;28;20031;-58
2022/02/15 00:23:04;;;;;;;13.67;8.20;;;;;;;;;;10288814;28;20042;-58
2022/02/15 00:28:04;;;;;;;14.85;7.60;;;;;;;;;;10289065;28;20433;-58
2022/02/15 00:33:04;;;;;;;13.10;7.97;;;;;;;;;;10287839;28;20430;-60
2022/02/15 00:38:05;;;;;;;25.23;7.97;;;;;;;;;;10288290;28;20030;-60
2022/02/15 00:43:05;;;;;;;13.43;7.77;;;;;;;;;;10288067;28;20469;-60
2022/02/15 00:48:07;;;;;;;14.57;7.80;;;;;;;;;;10287827;28;20059;-59
2022/02/15 00:53:07;;;;;;;13.93;7.53;;;;;;;;;;10287320;28;21016;-60
2022/02/15 00:58:08;;;;;;;11.20;7.20;;;;;;;;;;10287695;28;20030;-59
2022/02/15 01:03:08;;;;;;;18.23;8.23;;;;;;;;;;10287743;28;20026;-59
2022/02/15 01:08:12;;;;;;;19.10;8.40;;;;;;;;;;10287394;28;20545;-59
2022/02/15 01:13:12;;;;;;;15.02;8.35;;;;;;;;;;10274293;28;20475;-59
2022/02/15 01:18:13;;;;;;;17.63;8.55;;;;;;;;;;10287205;28;20114;-59
2022/02/15 01:23:13;;;;;;;12.13;7.87;;;;;;;;;;10286472;28;20038;-59
2022/02/15 01:28:14;;;;;;;9.63;7.37;;;;;;;;;;10287161;28;20531;-59
2022/02/15 01:33:14;;;;;;;15.25;7.93;;;;;;;;;;10286784;28;20751;-58
2022/02/15 01:38:14;;;;;;;12.97;7.50;;;;;;;;;;10286837;28;20062;-59
2022/02/15 01:43:15;;;;;;;10.53;7.10;;;;;;;;;;10286770;28;20548;-59
2022/02/15 01:48:15;;;;;;;11.73;7.73;;;;;;;;;;10285765;28;20073;-59
2022/02/15 01:53:16;;;;;;;12.68;7.18;;;;;;;;;;10286652;28;20065;-59
2022/02/15 01:58:17;;;;;;;13.80;7.60;;;;;;;;;;10286191;28;20042;-59
2022/02/15 02:03:17;;;;;;;13.30;7.57;;;;;;;;;;10285990;28;20457;-59
2022/02/15 02:08:19;;;;;;;11.10;7.22;;;;;;;;;;10285882;28;20038;-59
2022/02/15 02:13:20;;;;;;;9.27;7.05;;;;;;;;;;10280170;28;20035;-59
2022/02/15 02:18:21;;;;;;;9.73;6.88;;;;;;;;;;10285658;28;20031;-60
2022/02/15 02:23:21;;;;;;;11.35;6.85;;;;;;;;;;10279219;28;20514;-59
2022/02/15 02:28:22;;;;;;;14.40;7.50;;;;;;;;;;10285786;28;20262;-58
2022/02/15 02:33:22;;;;;;;10.27;7.13;;;;;;;;;;10284613;28;20430;-59
2022/02/15 02:38:23;;;;;;;8.73;6.23;;;;;;;;;;10286040;28;20032;-59
2022/02/15 02:43:25;;;;;;;12.97;7.00;;;;;;;;;;10290297;28;20461;-59
2022/02/15 02:48:25;;;;;;;10.45;6.88;;;;;;;;;;10264118;28;20058;-59
2022/02/15 02:53:26;;;;;;;9.23;6.67;;;;;;;;;;10291406;28;20573;-59
2022/02/15 02:58:26;;;;;;;13.50;6.33;;;;;;;;;;10284721;28;20476;-58
2022/02/15 03:03:27;;;;;;;8.80;6.30;;;;;;;;;;10291744;28;20035;-58
2022/02/15 03:08:27;;;;;;;9.82;6.43;;;;;;;;;;10291397;28;20114;-58
2022/02/15 03:13:27;;;;;;;10.13;5.83;;;;;;;;;;10291913;28;20038;-58
2022/02/15 03:18:28;;;;;;;10.07;6.93;;;;;;;;;;10291397;28;20435;-58
2022/02/15 03:23:28;;;;;;;8.55;5.75;;;;;;;;;;10283516;28;20129;-58
2022/02/15 03:28:28;;;;;;;8.23;6.10;;;;;;;;;;10252556;28;20402;-58
2022/02/15 03:33:29;;;;;;;12.40;6.83;;;;;;;;;;10284007;28;20070;-58
2022/02/15 03:38:30;;;;;;;8.75;6.10;;;;;;;;;;10291296;28;20036;-59
2022/02/15 03:43:30;;;;;;;9.05;6.18;;;;;;;;;;10290049;28;20445;-59
2022/02/15 03:48:31;;;;;;;8.03;6.23;;;;;;;;;;10284464;28;20035;-59
2022/02/15 03:53:31;;;;;;;7.35;5.50;;;;;;;;;;10276003;28;20490;-59
2022/02/15 03:58:32;;;;;;;9.60;6.33;;;;;;;;;;10290327;28;20085;-59
2022/02/15 04:03:32;;;;;;;11.02;6.53;;;;;;;;;;10289519;28;20742;-59
2022/02/15 04:08:33;;;;;;;10.55;5.88;;;;;;;;;;10289459;28;20479;-59
2022/02/15 04:13:33;;;;;;;10.10;5.97;;;;;;;;;;10288992;28;20391;-59
2022/02/15 04:18:33;;;;;;;8.60;6.27;;;;;;;;;;10289436;28;20449;-58
2022/02/15 04:23:34;;;;;;;9.27;5.50;;;;;;;;;;10288505;28;20042;-59
2022/02/15 04:28:34;;;;;;;9.33;6.30;;;;;;;;;;10289961;28;20432;-59
2022/02/15 04:33:35;;;;;;;10.00;6.10;;;;;;;;;;10281653;28;20031;-59
2022/02/15 04:38:35;;;;;;;7.53;6.03;;;;;;;;;;10281515;28;20045;-59
2022/02/15 04:43:36;;;;;;;8.00;5.88;;;;;;;;;;10287965;28;20027;-59
2022/02/15 04:48:36;;;;;;;8.63;6.03;;;;;;;;;;10278157;28;20031;-59
2022/02/15 04:53:37;;;;;;;8.03;6.00;;;;;;;;;;10280576;28;20488;-60
2022/02/15 04:58:37;;;;;;;8.95;5.53;;;;;;;;;;10287878;28;20114;-59
2022/02/15 05:03:37;;;;;;;9.35;5.57;;;;;;;;;;10286470;28;20031;-59
2022/02/15 05:08:38;;;;;;;8.07;5.13;;;;;;;;;;10287286;28;20029;-60
2022/02/15 05:13:38;;;;;;;6.37;5.10;;;;;;;;;;10286978;28;21110;-60
2022/02/15 05:18:38;;;;;;;7.37;5.40;;;;;;;;;;10287099;28;20801;-60
2022/02/15 05:23:39;;;;;;;6.33;5.20;;;;;;;;;;10286319;28;20480;-59
2022/02/15 05:28:40;;;;;;;6.70;4.30;;;;;;;;;;10286899;28;20073;-59
2022/02/15 05:33:41;;;;;;;6.83;5.30;;;;;;;;;;10286887;28;20030;-59
2022/02/15 05:38:42;;;;;;;6.83;4.83;;;;;;;;;;10279844;28;20468;-60
2022/02/15 05:43:42;;;;;;;8.32;5.07;;;;;;;;;;10280110;28;20386;-60
2022/02/15 05:48:43;;;;;;;6.07;4.27;;;;;;;;;;10285004;28;20031;-59
2022/02/15 05:53:43;;;;;;;6.05;4.70;;;;;;;;;;10286308;28;20041;-59
2022/02/15 05:58:43;;;;;;;7.17;4.30;;;;;;;;;;10286839;28;20026;-59
2022/02/15 06:09:03;;;;;;;;;;;;;;;;;;10287445;28;20038;-59
2022/02/15 06:14:03;;;;;;;5.18;4.00;;;;;;;;;;10285933;28;20373;-59
2022/02/15 06:19:04;;;;;;;5.83;4.67;;;;;;;;;;10279636;28;20118;-59
2022/02/15 06:24:04;;;;;;;6.07;4.47;;;;;;;;;;10291306;28;20473;-60
2022/02/15 06:29:05;;;;;;;4.78;4.20;;;;;;;;;;10291976;28;20047;-59
2022/02/15 06:34:05;;;;;;;5.00;4.13;;;;;;;;;;10264107;28;20035;-60
2022/02/15 06:39:09;;;;;;;8.48;4.95;;;;;;;;;;10280163;28;20041;-60
2022/02/15 06:44:09;;;;;;;7.30;4.35;;;;;;;;;;10285998;28;20114;-60
2022/02/15 07:03:46;;;;;;;7.07;4.25;;;;;;;;;;10404494;27;1295090;-62
2022/02/15 07:08:47;;;;;;;9.15;4.40;;;;;;;;;;10437420;28;20025;-67
2022/02/15 07:13:50;;;;;;;10.65;3.95;;;;;;;;;;10420715;28;20029;-67
2022/02/15 07:18:51;;;;;;;12.73;4.03;;;;;;;;;;10442534;28;20029;-68
2022/02/15 07:23:51;;;;;;;10.40;4.30;;;;;;;;;;10422447;28;20033;-68
2022/02/15 07:28:52;;;;;;;9.63;4.20;;;;;;;;;;10436370;28;20403;-61
2022/02/15 07:33:53;;;;;;;12.52;3.88;;;;;;;;;;10432639;28;20033;-61
2022/02/15 07:38:54;;;;;;;13.73;3.70;;;;;;;;;;10437765;28;20395;-68
2022/02/15 07:43:55;;;;;;;13.25;3.80;;;;;;;;;;10431448;28;20026;-67
2022/02/15 07:48:55;;;;;;;26.33;3.60;;;;;;;;;;10439469;28;20040;-66
2022/02/15 07:53:55;;;;;;;10.73;3.90;;;;;;;;;;10431078;28;20472;-67
2022/02/15 07:58:56;;;;;;;12.07;3.73;;;;;;;;;;10434058;28;20108;-68
2022/02/15 08:03:58;;;;;;;20.73;4.60;;;;;;;;;;10457475;28;20821;-61
2022/02/15 08:08:58;;;;;;;14.00;3.17;;;;;;;;;;10454728;28;20024;-69
2022/02/15 08:13:59;;;;;;;9.13;3.43;;;;;;;;;;10454060;28;20086;-68
2022/02/15 08:31:39;;;;;;;7.78;3.30;;;;;;;;;;10489992;27;20664;-61
2022/02/15 08:36:39;;;;;;;5.20;3.20;;;;;;;;;;10524171;28;20032;-60
2022/02/15 08:41:40;;;;;;;7.22;3.50;;;;;;;;;;10510740;28;20027;-59
2022/02/15 08:46:40;;;;;;;6.88;3.38;;;;;;;;;;10523962;28;20064;-60
2022/02/15 08:51:41;;;;;;;7.45;2.95;;;;;;;;;;10522950;28;20032;-61
2022/02/15 08:56:41;;;;;;;8.13;3.30;;;;;;;;;;10524104;28;20050;-61
2022/02/15 09:01:42;;;;;;;7.53;3.40;;;;;;;;;;10519419;28;20469;-62
2022/02/15 09:06:42;;;;;;;6.13;2.65;;;;;;;;;;10522525;28;20032;-60
2022/02/15 09:11:44;;;;;;;4.22;2.75;;;;;;;;;;10505809;28;20028;-59
2022/02/15 09:16:45;;;;;;;12.43;3.45;;;;;;;;;;10500066;28;20025;-59
2022/02/15 09:21:46;;;;;;;6.10;3.25;;;;;;;;;;10504632;28;20028;-59
2022/02/15 09:26:47;;;;;;;4.82;3.00;;;;;;;;;;10514791;28;20548;-59
2022/02/15 09:31:47;;;;;;;7.47;3.50;;;;;;;;;;10475721;28;20110;-64
2022/02/15 09:36:48;;;;;;;6.43;2.72;;;;;;;;;;10462029;28;20066;-61
2022/02/15 09:41:49;;;;;;;8.10;3.13;;;;;;;;;;10487180;28;20036;-61
2022/02/15 09:46:49;;;;;;;6.10;2.70;;;;;;;;;;10496648;28;20062;-59
2022/02/15 09:51:50;;;;;;;4.13;2.50;;;;;;;;;;10494075;28;20031;-61
2022/02/15 09:56:50;;;;;;;5.85;3.03;;;;;;;;;;10496303;28;20039;-61
2022/02/15 10:01:52;;;;;;;5.78;2.75;;;;;;;;;;10490121;28;20036;-63
2022/02/15 10:06:55;;;;;;;7.15;2.80;;;;;;;;;;10488641;28;20082;-59
2022/02/15 10:12:08;;;;;;;5.10;2.90;;;;;;;;;;10448543;28;20029;-60
2022/02/15 10:17:12;;;;;;;6.78;2.50;;;;;;;;;;10485419;28;20036;-59
2022/02/15 10:22:17;;;;;;;9.57;2.83;;;;;;;;;;10494922;28;20024;-59
2022/02/15 10:27:19;;;;;;;6.47;2.75;;;;;;;;;;10483314;28;20045;-60
2022/02/15 10:32:20;;;;;;;6.68;2.45;;;;;;;;;;10486762;28;20020;-60
2022/02/15 10:37:23;;;;;;;4.35;2.63;;;;;;;;;;10478483;28;20479;-60
2022/02/15 10:42:26;;;;;;;4.70;2.63;;;;;;;;;;10487191;28;20028;-64
2022/02/15 10:47:32;;;;;;;2.95;2.17;;;;;;;;;;10493519;28;20098;-62
2022/02/15 10:52:33;;;;;;;5.18;2.63;;;;;;;;;;10487669;28;20028;-63
2022/02/15 10:57:35;;;;;;;6.57;2.60;;;;;;;;;;10469951;28;20540;-61
2022/02/15 11:02:37;;;;;;;4.72;2.92;;;;;;;;;;10488566;28;20103;-61
2022/02/15 11:07:38;;;;;;;4.85;2.47;;;;;;;;;;10490285;28;20028;-60
2022/02/15 11:12:43;;;;;;;4.90;2.30;;;;;;;;;;10471227;28;20030;-61
2022/02/15 11:18:01;;;;;;;3.88;2.38;;;;;;;;;;10486585;28;20286;-63
2022/02/15 11:23:01;;;;;;;5.72;2.13;;;;;;;;;;10492954;28;20021;-59
2022/02/15 11:28:16;;;;;;;5.17;2.20;;;;;;;;;;10489299;28;20491;-60
2022/02/15 11:33:21;;;;;;;5.47;2.13;;;;;;;;;;10479946;28;20875;-59
2022/02/15 11:38:25;;;;;;;3.88;2.35;;;;;;;;;;10476978;28;20116;-62
2022/02/15 11:43:25;;;;;;;4.05;2.13;;;;;;;;;;10488386;28;20017;-59
2022/02/15 11:48:40;;;;;;;4.50;2.57;;;;;;;;;;10486539;28;20400;-60
2022/02/15 11:53:40;;;;;;;7.95;2.45;;;;;;;;;;10481694;28;20560;-60
2022/02/15 11:58:48;;;;;;;4.93;2.57;;;;;;;;;;10488774;28;20061;-59
2022/02/15 12:03:49;;;;;;;4.47;2.72;;;;;;;;;;10473278;28;20035;-60
2022/02/15 12:08:57;;;;;;;3.30;2.22;;;;;;;;;;10481062;28;20545;-59
2022/02/15 12:13:57;;;;;;;3.55;2.22;;;;;;;;;;10490796;28;20039;-61
2022/02/15 12:18:58;;;;;;;4.53;2.42;;;;;;;;;;10473326;28;20517;-56
2022/02/15 12:23:58;;;;;;;4.03;2.20;;;;;;;;;;10473461;28;20031;-63
2022/02/15 12:28:59;;;;;;;3.43;2.60;;;;;;;;;;10474422;28;20049;-59
2022/02/15 12:34:01;;;;;;;3.58;2.28;;;;;;;;;;10488406;28;20454;-60
2022/02/15 12:39:03;;;;;;;4.53;2.63;;;;;;;;;;10475680;28;20032;-65
2022/02/15 12:44:05;;;;;;;3.47;2.58;;;;;;;;;;10484175;28;20020;-60
2022/02/15 12:49:07;;;;;;;4.18;2.72;;;;;;;;;;10470131;28;20029;-59
2022/02/15 13:09:34;;;;;;;3.55;2.08;;;;;;;;;;10488271;27;21189;-64
2022/02/15 13:14:35;;;;;;;3.90;2.60;;;;;;;;;;10482569;28;20029;-64
2022/02/15 13:19:36;;;;;;;4.55;2.65;;;;;;;;;;10482907;28;21073;-62
2022/02/15 13:24:36;;;;;;;3.90;2.67;;;;;;;;;;10478963;28;20063;-65
2022/02/15 13:29:38;;;;;;;4.37;2.67;;;;;;;;;;10478823;28;20108;-63
2022/02/15 13:34:39;;;;;;;5.50;2.80;;;;;;;;;;10481647;28;20465;-63
2022/02/15 13:39:39;;;;;;;3.60;2.53;;;;;;;;;;10476732;28;20561;-63
2022/02/15 13:44:41;;;;;;;5.25;2.70;;;;;;;;;;10479780;28;20427;-63
2022/02/15 13:49:42;;;;;;;6.53;2.90;;;;;;;;;;10472227;28;20058;-63
2022/02/15 13:54:44;;;;;;;4.63;2.10;;;;;;;;;;10476955;28;20033;-63
2022/02/15 13:59:45;;;;;;;3.28;2.40;;;;;;;;;;10471537;28;20025;-62
2022/02/15 14:04:45;;;;;;;3.07;2.30;;;;;;;;;;10471517;28;20025;-65
2022/02/15 14:09:46;;;;;;;3.85;2.28;;;;;;;;;;10443809;28;20037;-63
2022/02/15 14:14:47;;;;;;;3.55;2.22;;;;;;;;;;10445178;28;20033;-62
2022/02/15 14:19:47;;;;;;;4.93;1.95;;;;;;;;;;10446708;28;20151;-62
2022/02/15 14:24:49;;;;;;;5.40;2.20;;;;;;;;;;10444693;28;20029;-65
2022/02/15 14:29:50;;;;;;;3.67;2.30;;;;;;;;;;10443737;28;20490;-64
2022/02/15 14:34:52;;;;;;;5.45;2.22;;;;;;;;;;10449309;28;20029;-64
2022/02/15 14:39:52;;;;;;;5.93;2.45;;;;;;;;;;10447735;28;20021;-66
2022/02/15 14:44:53;;;;;;;6.20;2.23;;;;;;;;;;10453241;28;20033;-64
2022/02/15 14:49:53;;;;;;;6.23;2.17;;;;;;;;;;10447636;28;20585;-65
2022/02/15 14:54:54;;;;;;;8.37;2.10;;;;;;;;;;10448546;28;20473;-63
2022/02/15 14:59:54;;;;;;;2.63;2.30;;;;;;;;;;10451619;28;20044;-63
2022/02/15 15:04:54;;;;;;;6.77;2.53;;;;;;;;;;10446786;28;20474;-62
2022/02/15 15:09:55;;;;;;;3.07;2.13;;;;;;;;;;10448039;28;20068;-65
2022/02/15 15:14:55;;;;;;;3.65;2.15;;;;;;;;;;10446782;28;20059;-65
2022/02/15 15:19:55;;;;;;;5.30;2.03;;;;;;;;;;10440398;28;20021;-65
2022/02/15 15:24:56;;;;;;;3.97;2.50;;;;;;;;;;10450176;28;20047;-65
2022/02/15 15:29:56;;;;;;;3.83;2.15;;;;;;;;;;10441891;28;20075;-64
2022/02/15 15:34:57;;;;;;;7.03;2.33;;;;;;;;;;10450142;28;20033;-63
2022/02/15 15:39:58;;;;;;;3.00;1.92;;;;;;;;;;10457430;28;20040;-64
2022/02/15 15:44:58;;;;;;;2.20;2.00;;;;;;;;;;10430765;28;20040;-63
2022/02/15 15:49:58;;;;;;;4.37;2.60;;;;;;;;;;10444871;28;20573;-63
2022/02/15 15:55:00;;;;;;;4.07;2.07;;;;;;;;;;10426403;28;20179;-64
2022/02/15 16:00:00;;;;;;;4.38;2.40;;;;;;;;;;10443705;28;20512;-65
2022/02/15 16:05:01;;;;;;;6.45;2.80;;;;;;;;;;10442813;28;20148;-64
2022/02/15 16:10:01;;;;;;;5.97;1.93;;;;;;;;;;10430504;28;20036;-65
2022/02/15 16:15:02;;;;;;;4.68;2.42;;;;;;;;;;10440467;28;20474;-64
2022/02/15 16:20:04;;;;;;;3.22;2.08;;;;;;;;;;10440091;28;20021;-65
2022/02/15 16:25:05;;;;;;;4.70;2.38;;;;;;;;;;10436798;28;20037;-72
2022/02/15 16:30:06;;;;;;;3.53;2.28;;;;;;;;;;10444987;28;20028;-64
2022/02/15 16:35:10;;;;;;;3.72;2.53;;;;;;;;;;10438418;28;20021;-68
2022/02/15 16:40:12;;;;;;;3.60;2.70;;;;;;;;;;10435210;28;20145;-64
2022/02/15 16:45:12;;;;;;;7.68;3.03;;;;;;;;;;10434262;28;20057;-65
2022/02/15 16:50:12;;;;;;;4.37;2.67;;;;;;;;;;10440207;28;20104;-65
2022/02/15 16:55:13;;;;;;;6.23;2.60;;;;;;;;;;10436030;28;20473;-64
2022/02/15 17:00:14;;;;;;;11.97;2.70;;;;;;;;;;10434942;28;20021;-66
2022/02/15 17:05:15;;;;;;;3.92;2.65;;;;;;;;;;10438095;28;20556;-64
2022/02/15 17:10:15;;;;;;;7.27;3.13;;;;;;;;;;10438776;28;20035;-64
2022/02/15 17:15:15;;;;;;;4.43;2.40;;;;;;;;;;10442056;28;20478;-63
2022/02/15 17:20:16;;;;;;;6.93;2.85;;;;;;;;;;10434796;28;20486;-64
2022/02/15 17:25:16;;;;;;;3.38;2.47;;;;;;;;;;10443706;28;20075;-65
2022/02/15 17:30:17;;;;;;;5.50;2.15;;;;;;;;;;10437270;28;20094;-63
2022/02/15 17:35:18;;;;;;;4.63;2.70;;;;;;;;;;10440771;28;21063;-64
2022/02/15 17:40:18;;;;;;;5.17;2.23;;;;;;;;;;10438692;28;20029;-63
2022/02/15 17:45:19;;;;;;;3.87;2.33;;;;;;;;;;10444404;28;21004;-65
2022/02/15 17:50:20;;;;;;;6.07;2.20;;;;;;;;;;10446494;28;20468;-64
2022/02/15 17:55:20;;;;;;;7.63;2.47;;;;;;;;;;10447245;28;20028;-64
2022/02/15 18:00:21;;;;;;;4.60;2.33;;;;;;;;;;10444323;28;20461;-65
2022/02/15 18:05:22;;;;;;;2.25;2.05;;;;;;;;;;10443579;28;20033;-63
2022/02/15 18:10:22;;;;;;;3.30;2.55;;;;;;;;;;10447371;28;20483;-62
2022/02/15 18:15:23;;;;;;;4.72;2.72;;;;;;;;;;10446709;28;20032;-63
2022/02/15 18:20:24;;;;;;;6.07;2.07;;;;;;;;;;10443419;28;20420;-62
2022/02/15 18:25:25;;;;;;;2.22;2.03;;;;;;;;;;10445275;28;21041;-63
2022/02/15 18:30:25;;;;;;;2.65;2.33;;;;;;;;;;10436387;28;20033;-65
2022/02/15 18:35:26;;;;;;;2.30;2.10;;;;;;;;;;10443358;28;20059;-62
2022/02/15 18:40:26;;;;;;;5.97;2.50;;;;;;;;;;10444691;28;20035;-62
2022/02/15 18:45:28;;;;;;;13.45;3.00;;;;;;;;;;10437399;28;20527;-63
2022/02/15 18:50:30;;;;;;;6.32;3.90;;;;;;;;;;10446596;28;20037;-62
2022/02/15 18:55:30;;;;;;;7.45;4.35;;;;;;;;;;10437856;28;20055;-62
2022/02/15 19:00:31;;;;;;;8.00;4.70;;;;;;;;;;10447735;28;20021;-63
2022/02/15 19:05:32;;;;;;;7.20;4.78;;;;;;;;;;10446166;28;20470;-62
2022/02/15 19:10:32;;;;;;;8.48;4.85;;;;;;;;;;10446042;28;20025;-63
2022/02/15 19:15:32;;;;;;;6.80;4.77;;;;;;;;;;10437373;28;20471;-62
2022/02/15 19:20:33;;;;;;;14.27;5.07;;;;;;;;;;10443563;28;20178;-62
2022/02/15 19:25:33;;;;;;;5.88;4.45;;;;;;;;;;10440174;28;20369;-62
2022/02/15 19:30:34;;;;;;;13.17;4.90;;;;;;;;;;10441812;28;20279;-64
2022/02/15 19:35:34;;;;;;;7.63;4.30;;;;;;;;;;10425106;28;20523;-64
2022/02/15 19:40:36;;;;;;;6.00;3.87;;;;;;;;;;10439613;28;20020;-64
2022/02/15 19:45:37;;;;;;;8.85;3.95;;;;;;;;;;10463266;28;20474;-63
2022/02/15 19:50:37;;;;;;;4.93;3.72;;;;;;;;;;10439645;28;20611;-63
2022/02/15 19:55:38;;;;;;;5.90;4.18;;;;;;;;;;10441162;28;20039;-63
2022/02/15 20:00:39;;;;;;;7.88;3.97;;;;;;;;;;10441999;28;20029;-63
2022/02/15 20:05:40;;;;;;;7.63;4.00;;;;;;;;;;10436017;28;20045;-63
2022/02/15 20:10:41;;;;;;;9.80;3.88;;;;;;;;;;10437635;28;20047;-64
2022/02/15 20:15:41;;;;;;;6.80;4.05;;;;;;;;;;10432790;28;20150;-64
2022/02/15 20:20:42;;;;;;;7.28;4.00;;;;;;;;;;10440771;28;20242;-63
2022/02/15 20:25:42;;;;;;;14.10;4.43;;;;;;;;;;10439428;28;20025;-63
2022/02/15 20:30:43;;;;;;;10.63;3.92;;;;;;;;;;10442128;28;20021;-64
2022/02/15 20:35:44;;;;;;;7.70;4.05;;;;;;;;;;10439851;28;20381;-63
2022/02/15 20:40:44;;;;;;;6.88;4.13;;;;;;;;;;10439134;28;20488;-64
2022/02/15 20:45:47;;;;;;;5.38;3.50;;;;;;;;;;10441186;28;20021;-64
2022/02/15 20:50:48;;;;;;;9.38;3.55;;;;;;;;;;10443161;28;20023;-62
2022/02/15 20:55:54;;;;;;;6.00;3.88;;;;;;;;;;10434867;28;20040;-62
2022/02/15 21:00:55;;;;;;;8.02;3.60;;;;;;;;;;10433583;28;20098;-62
2022/02/15 21:05:55;;;;;;;7.03;3.65;;;;;;;;;;10433157;28;20043;-62
2022/02/15 21:10:58;;;;;;;7.00;4.13;;;;;;;;;;10435204;28;20456;-63
2022/02/15 21:15:58;;;;;;;7.15;3.78;;;;;;;;;;10436718;28;20044;-62
2022/02/15 21:20:59;;;;;;;13.48;4.82;;;;;;;;;;10445968;28;20400;-63
2022/02/15 21:26:00;;;;;;;25.20;5.28;;;;;;;;;;10446963;28;20025;-62
2022/02/15 21:31:02;;;;;;;15.77;4.72;;;;;;;;;;10448385;28;20033;-63
2022/02/15 21:36:02;;;;;;;24.08;4.93;;;;;;;;;;10452959;28;20028;-63
2022/02/15 21:41:03;;;;;;;10.95;4.60;;;;;;;;;;10448473;28;20021;-64
2022/02/15 21:46:03;;;;;;;18.00;5.20;;;;;;;;;;10444215;28;20098;-63
2022/02/15 21:51:04;;;;;;;23.20;4.63;;;;;;;;;;10438163;28;20032;-63
2022/02/15 21:56:04;;;;;;;20.83;4.80;;;;;;;;;;10445160;28;20021;-63
2022/02/15 22:01:05;;;;;;;20.13;4.82;;;;;;;;;;10443343;28;20466;-64
2022/02/15 22:06:06;;;;;;;19.73;5.40;;;;;;;;;;10446122;28;20741;-66
2022/02/15 22:11:06;;;;;;;24.50;5.90;;;;;;;;;;10444917;28;20024;-63
2022/02/15 22:16:06;;;;;;;24.17;5.72;;;;;;;;;;10444531;28;20712;-63
2022/02/15 22:21:07;;;;;;;24.23;5.20;;;;;;;;;;10444976;28;20030;-63
2022/02/15 22:26:07;;;;;;;17.80;5.10;;;;;;;;;;10442941;28;20474;-65
2022/02/15 22:31:08;;;;;;;19.73;5.07;;;;;;;;;;10452305;28;20400;-64
2022/02/15 22:36:11;;;;;;;14.73;5.18;;;;;;;;;;10467861;22;20493;-64
2022/02/15 22:41:11;;;;;;;14.93;5.18;;;;;;;;;;10508615;28;20024;-62
2022/02/15 22:46:12;;;;;;;20.33;5.55;;;;;;;;;;10515493;28;20016;-62
2022/02/15 22:51:13;;;;;;;15.15;5.13;;;;;;;;;;10529177;28;20032;-61
2022/02/15 22:56:13;;;;;;;11.60;4.50;;;;;;;;;;10521298;28;20038;-60
2022/02/15 23:01:14;;;;;;;10.50;4.35;;;;;;;;;;10532342;28;20040;-62
2022/02/15 23:22:12;;;;;;;10.82;4.40;;;;;;;;;;10530588;28;20439;-61
2022/02/15 23:27:12;;;;;;;7.73;3.57;;;;;;;;;;10517355;28;20127;-63
2022/02/15 23:32:13;;;;;;;7.83;3.60;;;;;;;;;;10517163;28;20028;-64
2022/02/15 23:37:13;;;;;;;14.57;3.50;;;;;;;;;;10517585;28;20836;-62
2022/02/15 23:42:13;;;;;;;10.15;3.75;;;;;;;;;;10503872;28;20028;-62
2022/02/15 23:47:14;;;;;;;8.20;3.40;;;;;;;;;;10510336;28;20020;-63
2022/02/15 23:52:15;;;;;;;8.87;4.00;;;;;;;;;;10517925;28;20534;-62
2022/02/15 23:57:15;;;;;;;10.90;4.03;;;;;;;;;;10517342;28;20484;-62
